sensor_id;sensor_type;location;lat;lon;timestamp;P1;durP1;ratioP1;P2;durP2;ratioP2
75488;SDS011;64069;46.396;48.102;2023-05-13T00:01:55;15.52;;;4.78;;
75488;SDS011;64069;46.396;48.102;2023-05-13T00:04:21;12.32;;;5.60;;
75488;SDS011;64069;46.396;48.102;2023-05-13T00:06:46;10.80;;;4.82;;
75488;SDS011;64069;46.396;48.102;2023-05-13T00:09:12;11.38;;;4.93;;
75488;SDS011;64069;46.396;48.102;2023-05-13T00:11:38;11.48;;;5.55;;
75488;SDS011;64069;46.396;48.102;2023-05-13T00:14:04;11.85;;;5.10;;
75488;SDS011;64069;46.396;48.102;2023-05-13T00:16:33;10.82;;;5.25;;
75488;SDS011;64069;46.396;48.102;2023-05-13T00:18:59;11.30;;;5.07;;
75488;SDS011;64069;46.396;48.102;2023-05-13T00:21:25;10.43;;;5.22;;
75488;SDS011;64069;46.396;48.102;2023-05-13T00:23:51;11.65;;;5.38;;
75488;SDS011;64069;46.396;48.102;2023-05-13T00:26:17;11.95;;;5.65;;
75488;SDS011;64069;46.396;48.102;2023-05-13T00:28:46;10.75;;;4.85;;
75488;SDS011;64069;46.396;48.102;2023-05-13T00:31:12;9.80;;;5.25;;
75488;SDS011;64069;46.396;48.102;2023-05-13T00:33:38;12.10;;;5.85;;
75488;SDS011;64069;46.396;48.102;2023-05-13T00:36:04;13.95;;;5.75;;
75488;SDS011;64069;46.396;48.102;2023-05-13T00:38:31;8.63;;;4.97;;
75488;SDS011;64069;46.396;48.102;2023-05-13T00:40:57;14.85;;;6.13;;
75488;SDS011;64069;46.396;48.102;2023-05-13T00:43:22;14.77;;;6.55;;
75488;SDS011;64069;46.396;48.102;2023-05-13T00:45:48;13.75;;;5.28;;
75488;SDS011;64069;46.396;48.102;2023-05-13T00:48:15;18.92;;;5.60;;
75488;SDS011;64069;46.396;48.102;2023-05-13T00:50:41;12.48;;;5.80;;
75488;SDS011;64069;46.396;48.102;2023-05-13T00:53:09;15.00;;;5.70;;
75488;SDS011;64069;46.396;48.102;2023-05-13T00:55:39;13.55;;;5.30;;
75488;SDS011;64069;46.396;48.102;2023-05-13T00:58:09;10.52;;;6.20;;
75488;SDS011;64069;46.396;48.102;2023-05-13T01:00:57;13.23;;;5.53;;
75488;SDS011;64069;46.396;48.102;2023-05-13T01:11:59;16.75;;;5.55;;
75488;SDS011;64069;46.396;48.102;2023-05-13T01:14:32;23.30;;;6.60;;
75488;SDS011;64069;46.396;48.102;2023-05-13T01:17:17;14.70;;;5.97;;
75488;SDS011;64069;46.396;48.102;2023-05-13T01:19:56;16.48;;;5.80;;
75488;SDS011;64069;46.396;48.102;2023-05-13T01:22:24;11.25;;;5.65;;
75488;SDS011;64069;46.396;48.102;2023-05-13T01:24:50;11.20;;;5.20;;
75488;SDS011;64069;46.396;48.102;2023-05-13T01:27:17;12.73;;;5.93;;
75488;SDS011;64069;46.396;48.102;2023-05-13T01:29:44;13.35;;;5.82;;
75488;SDS011;64069;46.396;48.102;2023-05-13T01:32:12;14.57;;;6.10;;
75488;SDS011;64069;46.396;48.102;2023-05-13T01:34:38;12.75;;;6.13;;
75488;SDS011;64069;46.396;48.102;2023-05-13T01:37:06;16.52;;;7.05;;
75488;SDS011;64069;46.396;48.102;2023-05-13T01:39:32;17.17;;;7.32;;
75488;SDS011;64069;46.396;48.102;2023-05-13T01:42:03;18.63;;;7.03;;
75488;SDS011;64069;46.396;48.102;2023-05-13T01:44:30;16.48;;;6.40;;
75488;SDS011;64069;46.396;48.102;2023-05-13T01:46:56;16.83;;;6.75;;
75488;SDS011;64069;46.396;48.102;2023-05-13T01:49:23;19.67;;;7.60;;
75488;SDS011;64069;46.396;48.102;2023-05-13T01:51:50;15.88;;;7.90;;
75488;SDS011;64069;46.396;48.102;2023-05-13T01:54:16;15.98;;;7.68;;
75488;SDS011;64069;46.396;48.102;2023-05-13T01:56:47;14.98;;;6.57;;
75488;SDS011;64069;46.396;48.102;2023-05-13T01:59:13;14.27;;;6.75;;
75488;SDS011;64069;46.396;48.102;2023-05-13T02:01:39;20.10;;;7.35;;
75488;SDS011;64069;46.396;48.102;2023-05-13T02:04:05;19.52;;;7.78;;
75488;SDS011;64069;46.396;48.102;2023-05-13T02:06:31;18.88;;;5.90;;
75488;SDS011;64069;46.396;48.102;2023-05-13T02:08:57;21.48;;;6.60;;
75488;SDS011;64069;46.396;48.102;2023-05-13T02:11:23;13.32;;;6.00;;
75488;SDS011;64069;46.396;48.102;2023-05-13T02:13:49;11.77;;;6.00;;
75488;SDS011;64069;46.396;48.102;2023-05-13T02:16:16;17.35;;;6.57;;
75488;SDS011;64069;46.396;48.102;2023-05-13T02:18:42;18.42;;;6.40;;
75488;SDS011;64069;46.396;48.102;2023-05-13T02:21:08;14.00;;;6.32;;
75488;SDS011;64069;46.396;48.102;2023-05-13T02:23:34;18.42;;;6.03;;
75488;SDS011;64069;46.396;48.102;2023-05-13T02:26:00;15.50;;;5.90;;
75488;SDS011;64069;46.396;48.102;2023-05-13T02:28:26;19.20;;;6.15;;
75488;SDS011;64069;46.396;48.102;2023-05-13T02:30:52;12.00;;;5.22;;
75488;SDS011;64069;46.396;48.102;2023-05-13T02:33:18;10.80;;;5.10;;
75488;SDS011;64069;46.396;48.102;2023-05-13T02:35:44;16.02;;;5.90;;
75488;SDS011;64069;46.396;48.102;2023-05-13T02:38:10;10.35;;;5.32;;
75488;SDS011;64069;46.396;48.102;2023-05-13T02:40:37;10.73;;;4.65;;
75488;SDS011;64069;46.396;48.102;2023-05-13T02:43:04;15.70;;;5.80;;
75488;SDS011;64069;46.396;48.102;2023-05-13T02:45:43;13.60;;;5.82;;
75488;SDS011;64069;46.396;48.102;2023-05-13T02:48:10;11.27;;;5.88;;
75488;SDS011;64069;46.396;48.102;2023-05-13T02:50:36;11.32;;;5.80;;
75488;SDS011;64069;46.396;48.102;2023-05-13T02:53:03;12.38;;;5.78;;
75488;SDS011;64069;46.396;48.102;2023-05-13T02:55:31;12.00;;;5.72;;
75488;SDS011;64069;46.396;48.102;2023-05-13T02:57:57;11.27;;;5.55;;
75488;SDS011;64069;46.396;48.102;2023-05-13T03:00:24;13.23;;;5.28;;
75488;SDS011;64069;46.396;48.102;2023-05-13T03:02:50;11.98;;;5.40;;
75488;SDS011;64069;46.396;48.102;2023-05-13T03:05:16;10.68;;;5.40;;
75488;SDS011;64069;46.396;48.102;2023-05-13T03:07:42;12.68;;;6.40;;
75488;SDS011;64069;46.396;48.102;2023-05-13T03:10:08;15.40;;;6.72;;
75488;SDS011;64069;46.396;48.102;2023-05-13T03:12:34;11.25;;;5.55;;
75488;SDS011;64069;46.396;48.102;2023-05-13T03:15:02;10.73;;;5.82;;
75488;SDS011;64069;46.396;48.102;2023-05-13T03:17:28;11.60;;;6.28;;
75488;SDS011;64069;46.396;48.102;2023-05-13T03:19:56;14.02;;;6.47;;
75488;SDS011;64069;46.396;48.102;2023-05-13T03:22:22;12.63;;;5.72;;
75488;SDS011;64069;46.396;48.102;2023-05-13T03:24:48;19.27;;;6.60;;
75488;SDS011;64069;46.396;48.102;2023-05-13T03:27:15;14.18;;;6.97;;
75488;SDS011;64069;46.396;48.102;2023-05-13T03:29:42;12.77;;;6.60;;
75488;SDS011;64069;46.396;48.102;2023-05-13T03:32:08;12.70;;;6.47;;
75488;SDS011;64069;46.396;48.102;2023-05-13T03:34:34;17.92;;;7.13;;
75488;SDS011;64069;46.396;48.102;2023-05-13T03:37:02;20.55;;;6.45;;
75488;SDS011;64069;46.396;48.102;2023-05-13T03:39:28;16.70;;;7.20;;
75488;SDS011;64069;46.396;48.102;2023-05-13T03:41:54;14.95;;;6.40;;
75488;SDS011;64069;46.396;48.102;2023-05-13T03:44:21;12.77;;;5.88;;
75488;SDS011;64069;46.396;48.102;2023-05-13T03:46:47;12.38;;;5.75;;
75488;SDS011;64069;46.396;48.102;2023-05-13T03:49:13;12.07;;;6.57;;
75488;SDS011;64069;46.396;48.102;2023-05-13T03:51:40;13.75;;;7.60;;
75488;SDS011;64069;46.396;48.102;2023-05-13T03:54:06;16.88;;;6.70;;
75488;SDS011;64069;46.396;48.102;2023-05-13T03:56:32;13.80;;;6.53;;
75488;SDS011;64069;46.396;48.102;2023-05-13T03:58:59;14.32;;;7.22;;
75488;SDS011;64069;46.396;48.102;2023-05-13T04:01:25;13.63;;;7.07;;
75488;SDS011;64069;46.396;48.102;2023-05-13T04:03:52;12.73;;;6.63;;
75488;SDS011;64069;46.396;48.102;2023-05-13T04:06:18;13.27;;;6.10;;
75488;SDS011;64069;46.396;48.102;2023-05-13T04:08:46;13.70;;;6.47;;
75488;SDS011;64069;46.396;48.102;2023-05-13T04:11:14;13.90;;;5.90;;
75488;SDS011;64069;46.396;48.102;2023-05-13T04:13:40;12.45;;;5.18;;
75488;SDS011;64069;46.396;48.102;2023-05-13T04:16:08;13.13;;;6.55;;
75488;SDS011;64069;46.396;48.102;2023-05-13T04:18:34;10.82;;;5.97;;
75488;SDS011;64069;46.396;48.102;2023-05-13T04:21:04;14.38;;;6.75;;
75488;SDS011;64069;46.396;48.102;2023-05-13T04:23:31;11.70;;;5.95;;
75488;SDS011;64069;46.396;48.102;2023-05-13T04:25:57;18.65;;;6.75;;
75488;SDS011;64069;46.396;48.102;2023-05-13T04:28:23;14.73;;;6.55;;
75488;SDS011;64069;46.396;48.102;2023-05-13T04:30:51;11.32;;;6.55;;
75488;SDS011;64069;46.396;48.102;2023-05-13T04:33:17;11.45;;;6.07;;
75488;SDS011;64069;46.396;48.102;2023-05-13T04:35:46;13.90;;;6.97;;
75488;SDS011;64069;46.396;48.102;2023-05-13T04:38:13;12.45;;;6.68;;
75488;SDS011;64069;46.396;48.102;2023-05-13T04:40:38;14.05;;;6.22;;
75488;SDS011;64069;46.396;48.102;2023-05-13T04:43:08;15.43;;;6.70;;
75488;SDS011;64069;46.396;48.102;2023-05-13T04:45:55;21.38;;;6.80;;
75488;SDS011;64069;46.396;48.102;2023-05-13T04:48:20;13.15;;;6.65;;
75488;SDS011;64069;46.396;48.102;2023-05-13T04:50:46;11.10;;;6.20;;
75488;SDS011;64069;46.396;48.102;2023-05-13T04:53:14;12.27;;;6.30;;
75488;SDS011;64069;46.396;48.102;2023-05-13T04:55:40;13.60;;;5.68;;
75488;SDS011;64069;46.396;48.102;2023-05-13T04:58:06;12.18;;;6.43;;
75488;SDS011;64069;46.396;48.102;2023-05-13T05:00:34;13.27;;;5.80;;
75488;SDS011;64069;46.396;48.102;2023-05-13T05:03:00;11.88;;;6.72;;
75488;SDS011;64069;46.396;48.102;2023-05-13T05:05:26;10.18;;;5.78;;
75488;SDS011;64069;46.396;48.102;2023-05-13T05:07:52;12.98;;;5.90;;
75488;SDS011;64069;46.396;48.102;2023-05-13T05:10:19;11.48;;;5.97;;
75488;SDS011;64069;46.396;48.102;2023-05-13T05:12:52;13.07;;;6.38;;
75488;SDS011;64069;46.396;48.102;2023-05-13T05:15:22;10.75;;;5.97;;
75488;SDS011;64069;46.396;48.102;2023-05-13T05:17:51;11.23;;;5.43;;
75488;SDS011;64069;46.396;48.102;2023-05-13T05:20:17;11.82;;;5.97;;
75488;SDS011;64069;46.396;48.102;2023-05-13T05:22:45;16.05;;;7.00;;
75488;SDS011;64069;46.396;48.102;2023-05-13T05:25:12;10.57;;;5.15;;
75488;SDS011;64069;46.396;48.102;2023-05-13T05:27:39;11.85;;;5.93;;
75488;SDS011;64069;46.396;48.102;2023-05-13T05:30:05;12.23;;;6.03;;
75488;SDS011;64069;46.396;48.102;2023-05-13T05:32:34;13.77;;;6.72;;
75488;SDS011;64069;46.396;48.102;2023-05-13T05:35:01;11.45;;;5.90;;
75488;SDS011;64069;46.396;48.102;2023-05-13T05:37:30;12.35;;;5.55;;
75488;SDS011;64069;46.396;48.102;2023-05-13T05:39:56;13.95;;;5.15;;
75488;SDS011;64069;46.396;48.102;2023-05-13T05:42:22;12.32;;;6.07;;
75488;SDS011;64069;46.396;48.102;2023-05-13T05:44:48;15.95;;;6.38;;
75488;SDS011;64069;46.396;48.102;2023-05-13T05:47:15;12.13;;;5.70;;
75488;SDS011;64069;46.396;48.102;2023-05-13T05:49:41;19.58;;;6.32;;
75488;SDS011;64069;46.396;48.102;2023-05-13T05:52:07;31.08;;;7.85;;
75488;SDS011;64069;46.396;48.102;2023-05-13T05:54:35;21.40;;;7.03;;
75488;SDS011;64069;46.396;48.102;2023-05-13T05:57:01;21.13;;;6.18;;
75488;SDS011;64069;46.396;48.102;2023-05-13T05:59:27;21.00;;;6.40;;
75488;SDS011;64069;46.396;48.102;2023-05-13T06:01:53;16.98;;;6.38;;
75488;SDS011;64069;46.396;48.102;2023-05-13T06:04:19;16.60;;;5.68;;
75488;SDS011;64069;46.396;48.102;2023-05-13T06:06:45;23.05;;;6.78;;
75488;SDS011;64069;46.396;48.102;2023-05-13T06:09:11;22.70;;;5.80;;
75488;SDS011;64069;46.396;48.102;2023-05-13T06:11:38;13.30;;;6.45;;
75488;SDS011;64069;46.396;48.102;2023-05-13T06:14:03;10.55;;;5.03;;
75488;SDS011;64069;46.396;48.102;2023-05-13T06:16:30;15.18;;;5.65;;
75488;SDS011;64069;46.396;48.102;2023-05-13T06:18:58;16.25;;;5.97;;
75488;SDS011;64069;46.396;48.102;2023-05-13T06:21:24;8.57;;;4.60;;
75488;SDS011;64069;46.396;48.102;2023-05-13T06:23:54;9.55;;;4.80;;
75488;SDS011;64069;46.396;48.102;2023-05-13T06:26:20;15.68;;;5.90;;
75488;SDS011;64069;46.396;48.102;2023-05-13T06:28:46;15.18;;;5.75;;
75488;SDS011;64069;46.396;48.102;2023-05-13T06:31:12;12.65;;;5.35;;
75488;SDS011;64069;46.396;48.102;2023-05-13T06:33:38;11.02;;;5.25;;
75488;SDS011;64069;46.396;48.102;2023-05-13T06:36:04;11.32;;;5.40;;
75488;SDS011;64069;46.396;48.102;2023-05-13T06:38:31;27.33;;;5.78;;
75488;SDS011;64069;46.396;48.102;2023-05-13T06:40:59;10.57;;;5.68;;
75488;SDS011;64069;46.396;48.102;2023-05-13T06:43:31;11.95;;;5.82;;
75488;SDS011;64069;46.396;48.102;2023-05-13T06:46:05;13.55;;;5.28;;
75488;SDS011;64069;46.396;48.102;2023-05-13T06:48:31;15.15;;;6.78;;
75488;SDS011;64069;46.396;48.102;2023-05-13T06:50:57;15.48;;;6.22;;
75488;SDS011;64069;46.396;48.102;2023-05-13T06:53:23;11.52;;;6.00;;
75488;SDS011;64069;46.396;48.102;2023-05-13T06:55:49;11.40;;;5.72;;
75488;SDS011;64069;46.396;48.102;2023-05-13T06:58:15;11.02;;;5.82;;
75488;SDS011;64069;46.396;48.102;2023-05-13T07:00:41;9.68;;;4.88;;
75488;SDS011;64069;46.396;48.102;2023-05-13T07:03:07;17.73;;;7.25;;
75488;SDS011;64069;46.396;48.102;2023-05-13T07:05:33;14.98;;;4.80;;
75488;SDS011;64069;46.396;48.102;2023-05-13T07:08:00;9.10;;;4.90;;
75488;SDS011;64069;46.396;48.102;2023-05-13T07:10:33;11.43;;;5.23;;
75488;SDS011;64069;46.396;48.102;2023-05-13T07:13:00;18.23;;;5.13;;
75488;SDS011;64069;46.396;48.102;2023-05-13T07:15:27;12.60;;;4.88;;
75488;SDS011;64069;46.396;48.102;2023-05-13T07:17:53;71.57;;;10.30;;
75488;SDS011;64069;46.396;48.102;2023-05-13T07:20:19;26.88;;;7.07;;
75488;SDS011;64069;46.396;48.102;2023-05-13T07:22:47;17.70;;;5.07;;
75488;SDS011;64069;46.396;48.102;2023-05-13T07:25:14;8.32;;;5.13;;
75488;SDS011;64069;46.396;48.102;2023-05-13T07:27:40;14.90;;;5.80;;
75488;SDS011;64069;46.396;48.102;2023-05-13T07:30:06;11.30;;;4.45;;
75488;SDS011;64069;46.396;48.102;2023-05-13T07:32:32;10.57;;;5.35;;
75488;SDS011;64069;46.396;48.102;2023-05-13T07:35:00;9.63;;;4.72;;
75488;SDS011;64069;46.396;48.102;2023-05-13T07:37:30;10.33;;;4.47;;
75488;SDS011;64069;46.396;48.102;2023-05-13T07:39:56;9.55;;;5.53;;
75488;SDS011;64069;46.396;48.102;2023-05-13T07:42:26;10.88;;;5.32;;
75488;SDS011;64069;46.396;48.102;2023-05-13T07:44:54;22.67;;;6.03;;
75488;SDS011;64069;46.396;48.102;2023-05-13T07:47:20;15.15;;;4.97;;
75488;SDS011;64069;46.396;48.102;2023-05-13T07:49:46;15.73;;;5.20;;
75488;SDS011;64069;46.396;48.102;2023-05-13T07:52:12;11.07;;;4.45;;
75488;SDS011;64069;46.396;48.102;2023-05-13T07:54:38;9.52;;;4.70;;
75488;SDS011;64069;46.396;48.102;2023-05-13T07:57:04;11.65;;;4.60;;
75488;SDS011;64069;46.396;48.102;2023-05-13T07:59:30;11.65;;;4.90;;
75488;SDS011;64069;46.396;48.102;2023-05-13T08:01:56;9.18;;;5.05;;
75488;SDS011;64069;46.396;48.102;2023-05-13T08:04:22;11.55;;;4.97;;
75488;SDS011;64069;46.396;48.102;2023-05-13T08:06:48;24.20;;;6.82;;
75488;SDS011;64069;46.396;48.102;2023-05-13T08:09:14;36.75;;;6.43;;
75488;SDS011;64069;46.396;48.102;2023-05-13T08:11:39;13.45;;;5.05;;
75488;SDS011;64069;46.396;48.102;2023-05-13T08:14:06;8.32;;;4.43;;
75488;SDS011;64069;46.396;48.102;2023-05-13T08:16:35;12.98;;;5.38;;
75488;SDS011;64069;46.396;48.102;2023-05-13T08:19:01;8.32;;;4.40;;
75488;SDS011;64069;46.396;48.102;2023-05-13T08:21:28;19.13;;;6.18;;
75488;SDS011;64069;46.396;48.102;2023-05-13T08:23:53;9.63;;;4.65;;
75488;SDS011;64069;46.396;48.102;2023-05-13T08:26:19;12.05;;;5.05;;
75488;SDS011;64069;46.396;48.102;2023-05-13T08:28:45;9.68;;;4.90;;
75488;SDS011;64069;46.396;48.102;2023-05-13T08:31:11;10.32;;;5.25;;
75488;SDS011;64069;46.396;48.102;2023-05-13T08:33:38;8.35;;;4.60;;
75488;SDS011;64069;46.396;48.102;2023-05-13T08:36:13;9.65;;;5.22;;
75488;SDS011;64069;46.396;48.102;2023-05-13T08:38:39;11.75;;;5.53;;
75488;SDS011;64069;46.396;48.102;2023-05-13T08:41:07;8.43;;;4.72;;
75488;SDS011;64069;46.396;48.102;2023-05-13T08:43:35;9.48;;;5.00;;
75488;SDS011;64069;46.396;48.102;2023-05-13T08:46:03;11.10;;;5.30;;
75488;SDS011;64069;46.396;48.102;2023-05-13T08:48:33;9.77;;;4.97;;
75488;SDS011;64069;46.396;48.102;2023-05-13T08:51:00;12.10;;;4.63;;
75488;SDS011;64069;46.396;48.102;2023-05-13T08:53:27;8.98;;;4.95;;
75488;SDS011;64069;46.396;48.102;2023-05-13T08:55:53;12.30;;;5.25;;
75488;SDS011;64069;46.396;48.102;2023-05-13T08:58:20;9.65;;;5.35;;
75488;SDS011;64069;46.396;48.102;2023-05-13T09:00:47;11.88;;;5.07;;
75488;SDS011;64069;46.396;48.102;2023-05-13T09:03:14;14.13;;;5.68;;
75488;SDS011;64069;46.396;48.102;2023-05-13T09:05:43;11.98;;;5.22;;
75488;SDS011;64069;46.396;48.102;2023-05-13T09:08:09;12.68;;;5.45;;
75488;SDS011;64069;46.396;48.102;2023-05-13T09:10:35;11.40;;;4.88;;
75488;SDS011;64069;46.396;48.102;2023-05-13T09:13:06;14.68;;;5.10;;
75488;SDS011;64069;46.396;48.102;2023-05-13T09:15:32;11.20;;;5.13;;
75488;SDS011;64069;46.396;48.102;2023-05-13T09:18:00;11.20;;;4.70;;
75488;SDS011;64069;46.396;48.102;2023-05-13T09:20:27;10.75;;;5.07;;
75488;SDS011;64069;46.396;48.102;2023-05-13T09:22:58;11.82;;;4.72;;
75488;SDS011;64069;46.396;48.102;2023-05-13T09:25:25;21.58;;;5.30;;
75488;SDS011;64069;46.396;48.102;2023-05-13T09:27:59;12.57;;;5.35;;
75488;SDS011;64069;46.396;48.102;2023-05-13T09:30:27;12.00;;;5.38;;
75488;SDS011;64069;46.396;48.102;2023-05-13T09:33:05;9.13;;;4.97;;
75488;SDS011;64069;46.396;48.102;2023-05-13T09:35:37;12.75;;;5.00;;
75488;SDS011;64069;46.396;48.102;2023-05-13T09:38:34;9.05;;;4.85;;
75488;SDS011;64069;46.396;48.102;2023-05-13T09:41:03;9.40;;;4.60;;
75488;SDS011;64069;46.396;48.102;2023-05-13T09:43:30;11.93;;;5.43;;
75488;SDS011;64069;46.396;48.102;2023-05-13T09:46:02;10.70;;;5.05;;
75488;SDS011;64069;46.396;48.102;2023-05-13T09:48:30;10.77;;;5.18;;
75488;SDS011;64069;46.396;48.102;2023-05-13T09:50:57;10.35;;;4.80;;
75488;SDS011;64069;46.396;48.102;2023-05-13T09:53:24;9.63;;;4.72;;
75488;SDS011;64069;46.396;48.102;2023-05-13T09:55:51;13.00;;;4.72;;
75488;SDS011;64069;46.396;48.102;2023-05-13T09:58:18;11.43;;;4.72;;
75488;SDS011;64069;46.396;48.102;2023-05-13T10:00:45;14.52;;;6.10;;
75488;SDS011;64069;46.396;48.102;2023-05-13T10:03:11;16.67;;;5.22;;
75488;SDS011;64069;46.396;48.102;2023-05-13T10:05:38;14.27;;;4.57;;
75488;SDS011;64069;46.396;48.102;2023-05-13T10:08:06;8.52;;;5.15;;
75488;SDS011;64069;46.396;48.102;2023-05-13T10:10:34;9.07;;;4.93;;
75488;SDS011;64069;46.396;48.102;2023-05-13T10:13:02;13.82;;;5.35;;
75488;SDS011;64069;46.396;48.102;2023-05-13T10:15:39;10.18;;;5.30;;
75488;SDS011;64069;46.396;48.102;2023-05-13T10:18:15;10.65;;;5.05;;
75488;SDS011;64069;46.396;48.102;2023-05-13T10:20:41;13.73;;;5.40;;
75488;SDS011;64069;46.396;48.102;2023-05-13T10:23:08;11.18;;;5.53;;
75488;SDS011;64069;46.396;48.102;2023-05-13T10:25:35;16.92;;;5.50;;
75488;SDS011;64069;46.396;48.102;2023-05-13T10:28:02;11.80;;;4.93;;
75488;SDS011;64069;46.396;48.102;2023-05-13T10:30:29;12.40;;;4.88;;
75488;SDS011;64069;46.396;48.102;2023-05-13T10:33:00;9.95;;;5.18;;
75488;SDS011;64069;46.396;48.102;2023-05-13T10:35:28;9.23;;;5.03;;
75488;SDS011;64069;46.396;48.102;2023-05-13T10:43:43;10.48;;;5.45;;
75488;SDS011;64069;46.396;48.102;2023-05-13T10:46:12;14.38;;;5.22;;
75488;SDS011;64069;46.396;48.102;2023-05-13T10:48:45;9.10;;;5.18;;
75488;SDS011;64069;46.396;48.102;2023-05-13T10:51:13;10.20;;;5.30;;
75488;SDS011;64069;46.396;48.102;2023-05-13T10:53:47;11.68;;;5.18;;
75488;SDS011;64069;46.396;48.102;2023-05-13T10:56:14;12.77;;;5.38;;
75488;SDS011;64069;46.396;48.102;2023-05-13T10:58:43;10.35;;;5.22;;
75488;SDS011;64069;46.396;48.102;2023-05-13T11:01:35;11.43;;;6.00;;
75488;SDS011;64069;46.396;48.102;2023-05-13T11:04:14;9.05;;;4.90;;
75488;SDS011;64069;46.396;48.102;2023-05-13T11:06:42;12.25;;;5.22;;
75488;SDS011;64069;46.396;48.102;2023-05-13T11:09:11;12.05;;;5.57;;
75488;SDS011;64069;46.396;48.102;2023-05-13T11:11:55;10.27;;;5.10;;
75488;SDS011;64069;46.396;48.102;2023-05-13T11:14:23;18.20;;;5.68;;
75488;SDS011;64069;46.396;48.102;2023-05-13T11:16:53;11.35;;;5.15;;
75488;SDS011;64069;46.396;48.102;2023-05-13T11:21:54;13.15;;;5.18;;
75488;SDS011;64069;46.396;48.102;2023-05-13T11:24:32;10.82;;;5.75;;
75488;SDS011;64069;46.396;48.102;2023-05-13T11:26:58;11.25;;;6.07;;
75488;SDS011;64069;46.396;48.102;2023-05-13T11:29:49;12.45;;;5.82;;
75488;SDS011;64069;46.396;48.102;2023-05-13T11:35:25;18.98;;;6.35;;
75488;SDS011;64069;46.396;48.102;2023-05-13T11:38:00;10.10;;;5.50;;
75488;SDS011;64069;46.396;48.102;2023-05-13T11:40:33;8.93;;;5.25;;
75488;SDS011;64069;46.396;48.102;2023-05-13T11:43:00;12.43;;;5.88;;
75488;SDS011;64069;46.396;48.102;2023-05-13T11:45:29;13.73;;;6.05;;
75488;SDS011;64069;46.396;48.102;2023-05-13T11:47:56;14.77;;;6.45;;
75488;SDS011;64069;46.396;48.102;2023-05-13T11:50:26;13.10;;;6.32;;
75488;SDS011;64069;46.396;48.102;2023-05-13T11:52:57;14.15;;;6.93;;
75488;SDS011;64069;46.396;48.102;2023-05-13T11:55:28;14.10;;;6.35;;
75488;SDS011;64069;46.396;48.102;2023-05-13T11:57:58;11.65;;;6.53;;
75488;SDS011;64069;46.396;48.102;2023-05-13T12:00:25;15.90;;;6.93;;
75488;SDS011;64069;46.396;48.102;2023-05-13T12:02:55;9.48;;;5.88;;
75488;SDS011;64069;46.396;48.102;2023-05-13T12:05:23;13.38;;;6.53;;
75488;SDS011;64069;46.396;48.102;2023-05-13T12:07:49;13.05;;;6.35;;
75488;SDS011;64069;46.396;48.102;2023-05-13T12:10:16;12.38;;;6.10;;
75488;SDS011;64069;46.396;48.102;2023-05-13T12:12:43;15.35;;;6.50;;
75488;SDS011;64069;46.396;48.102;2023-05-13T12:15:14;16.33;;;6.90;;
75488;SDS011;64069;46.396;48.102;2023-05-13T12:17:42;13.95;;;7.68;;
75488;SDS011;64069;46.396;48.102;2023-05-13T12:20:19;14.05;;;8.00;;
75488;SDS011;64069;46.396;48.102;2023-05-13T12:27:57;13.52;;;6.93;;
75488;SDS011;64069;46.396;48.102;2023-05-13T12:30:24;13.48;;;7.20;;
75488;SDS011;64069;46.396;48.102;2023-05-13T12:32:50;16.58;;;7.68;;
75488;SDS011;64069;46.396;48.102;2023-05-13T12:35:16;19.50;;;8.75;;
75488;SDS011;64069;46.396;48.102;2023-05-13T12:37:42;18.08;;;7.68;;
75488;SDS011;64069;46.396;48.102;2023-05-13T12:40:09;14.63;;;7.63;;
75488;SDS011;64069;46.396;48.102;2023-05-13T12:42:38;26.58;;;8.68;;
75488;SDS011;64069;46.396;48.102;2023-05-13T12:45:09;13.80;;;7.32;;
75488;SDS011;64069;46.396;48.102;2023-05-13T12:47:51;15.60;;;7.03;;
75488;SDS011;64069;46.396;48.102;2023-05-13T12:50:17;15.43;;;7.30;;
75488;SDS011;64069;46.396;48.102;2023-05-13T12:52:43;12.85;;;6.90;;
75488;SDS011;64069;46.396;48.102;2023-05-13T12:55:09;15.05;;;6.93;;
75488;SDS011;64069;46.396;48.102;2023-05-13T12:57:38;13.68;;;7.38;;
75488;SDS011;64069;46.396;48.102;2023-05-13T13:00:06;13.48;;;6.70;;
75488;SDS011;64069;46.396;48.102;2023-05-13T13:02:34;15.88;;;6.57;;
75488;SDS011;64069;46.396;48.102;2023-05-13T13:05:00;13.07;;;6.35;;
75488;SDS011;64069;46.396;48.102;2023-05-13T13:07:26;17.75;;;7.32;;
75488;SDS011;64069;46.396;48.102;2023-05-13T13:09:52;13.10;;;6.68;;
75488;SDS011;64069;46.396;48.102;2023-05-13T13:12:19;13.45;;;6.70;;
75488;SDS011;64069;46.396;48.102;2023-05-13T13:14:45;16.63;;;6.30;;
75488;SDS011;64069;46.396;48.102;2023-05-13T13:17:12;12.27;;;6.15;;
75488;SDS011;64069;46.396;48.102;2023-05-13T13:19:38;12.30;;;7.50;;
75488;SDS011;64069;46.396;48.102;2023-05-13T13:22:04;14.30;;;7.13;;
75488;SDS011;64069;46.396;48.102;2023-05-13T13:24:30;13.60;;;6.50;;
75488;SDS011;64069;46.396;48.102;2023-05-13T13:26:57;16.50;;;6.63;;
75488;SDS011;64069;46.396;48.102;2023-05-13T13:29:22;11.88;;;6.30;;
75488;SDS011;64069;46.396;48.102;2023-05-13T13:31:48;11.73;;;6.07;;
75488;SDS011;64069;46.396;48.102;2023-05-13T13:34:16;13.45;;;7.63;;
75488;SDS011;64069;46.396;48.102;2023-05-13T13:36:42;12.93;;;6.50;;
75488;SDS011;64069;46.396;48.102;2023-05-13T13:39:08;11.38;;;6.40;;
75488;SDS011;64069;46.396;48.102;2023-05-13T13:41:37;12.23;;;6.20;;
75488;SDS011;64069;46.396;48.102;2023-05-13T13:44:03;13.35;;;6.93;;
75488;SDS011;64069;46.396;48.102;2023-05-13T13:46:29;15.55;;;5.93;;
75488;SDS011;64069;46.396;48.102;2023-05-13T13:48:55;11.55;;;5.95;;
75488;SDS011;64069;46.396;48.102;2023-05-13T13:51:21;10.57;;;5.60;;
75488;SDS011;64069;46.396;48.102;2023-05-13T13:53:48;10.38;;;5.93;;
75488;SDS011;64069;46.396;48.102;2023-05-13T13:56:14;12.30;;;6.22;;
75488;SDS011;64069;46.396;48.102;2023-05-13T13:58:40;14.18;;;6.65;;
75488;SDS011;64069;46.396;48.102;2023-05-13T14:01:06;12.73;;;6.63;;
75488;SDS011;64069;46.396;48.102;2023-05-13T14:03:32;13.05;;;5.65;;
75488;SDS011;64069;46.396;48.102;2023-05-13T14:05:58;10.32;;;5.90;;
75488;SDS011;64069;46.396;48.102;2023-05-13T14:08:24;11.35;;;6.03;;
75488;SDS011;64069;46.396;48.102;2023-05-13T14:10:49;16.52;;;6.38;;
75488;SDS011;64069;46.396;48.102;2023-05-13T14:13:16;11.73;;;5.65;;
75488;SDS011;64069;46.396;48.102;2023-05-13T14:15:42;13.32;;;6.80;;
75488;SDS011;64069;46.396;48.102;2023-05-13T14:18:08;16.88;;;7.53;;
75488;SDS011;64069;46.396;48.102;2023-05-13T14:20:34;13.05;;;6.07;;
75488;SDS011;64069;46.396;48.102;2023-05-13T14:23:00;14.00;;;6.05;;
75488;SDS011;64069;46.396;48.102;2023-05-13T14:25:27;15.73;;;7.07;;
75488;SDS011;64069;46.396;48.102;2023-05-13T14:27:53;12.93;;;6.78;;
75488;SDS011;64069;46.396;48.102;2023-05-13T14:30:18;29.38;;;9.82;;
75488;SDS011;64069;46.396;48.102;2023-05-13T14:32:44;38.47;;;11.25;;
75488;SDS011;64069;46.396;48.102;2023-05-13T14:35:11;32.40;;;11.88;;
75488;SDS011;64069;46.396;48.102;2023-05-13T14:37:38;20.45;;;8.38;;
75488;SDS011;64069;46.396;48.102;2023-05-13T14:40:05;13.68;;;7.05;;
75488;SDS011;64069;46.396;48.102;2023-05-13T14:42:32;14.55;;;7.38;;
75488;SDS011;64069;46.396;48.102;2023-05-13T14:44:58;13.07;;;7.32;;
75488;SDS011;64069;46.396;48.102;2023-05-13T14:47:23;16.90;;;7.60;;
75488;SDS011;64069;46.396;48.102;2023-05-13T14:49:49;23.20;;;9.25;;
75488;SDS011;64069;46.396;48.102;2023-05-13T14:52:15;21.17;;;8.43;;